Time;durP1;ratioP1;P1;durP2;ratioP2;P2;SDS_P1;SDS_P2;PMS_P1;PMS_P2;Temp;Humidity;BMP_temperature;BMP_pressure;BME280_temperature;BME280_humidity;BME280_pressure;Samples;Min_cycle;Max_cycle;Signal;HPM_P1;HPM_P2
2022/10/21 00:00:58;;;;;;;28.40;20.53;;;14.00;99.90;;;;;;5073803;28;20512;-78
2022/10/21 00:03:26;;;;;;;34.77;21.60;;;14.00;99.90;;;;;;5073057;28;20197;-80
2022/10/21 00:05:54;;;;;;;31.20;22.13;;;14.00;99.90;;;;;;5072906;28;20203;-78
2022/10/21 00:08:21;;;;;;;28.80;21.90;;;14.00;99.90;;;;;;5073718;28;20208;-78
2022/10/21 00:10:52;;;;;;;26.50;20.60;;;14.00;99.90;;;;;;5073140;28;20225;-78
2022/10/21 00:13:20;;;;;;;32.87;23.43;;;14.00;99.90;;;;;;5073759;28;20196;-78
2022/10/21 00:15:58;;;;;;;34.83;23.53;;;14.00;99.90;;;;;;5073151;28;20220;-78
2022/10/21 00:18:25;;;;;;;33.77;22.47;;;14.00;99.90;;;;;;5073412;28;20248;-78
2022/10/21 00:20:52;;;;;;;31.13;23.07;;;14.10;99.90;;;;;;5073499;28;20809;-78
2022/10/21 00:23:19;;;;;;;31.73;23.87;;;14.10;99.90;;;;;;5073130;28;20193;-79
2022/10/21 00:25:46;;;;;;;35.40;23.30;;;14.10;99.90;;;;;;5073571;28;20211;-78
2022/10/21 00:28:12;;;;;;;33.90;23.97;;;14.10;99.90;;;;;;5073316;28;20811;-78
2022/10/21 00:30:44;;;;;;;29.37;21.70;;;14.10;99.90;;;;;;5072882;28;20225;-78
2022/10/21 00:33:11;;;;;;;26.83;20.13;;;14.00;99.90;;;;;;5073564;28;20201;-77
2022/10/21 00:35:38;;;;;;;34.40;22.80;;;14.10;99.90;;;;;;5082617;28;20584;-78
2022/10/21 00:38:05;;;;;;;31.80;22.77;;;14.10;99.90;;;;;;5092764;28;20588;-79
2022/10/21 00:40:32;;;;;;;35.23;23.23;;;14.00;99.90;;;;;;5092772;28;20202;-78
2022/10/21 00:43:00;;;;;;;32.73;21.70;;;14.00;99.90;;;;;;5089837;28;20217;-79
2022/10/21 00:45:28;;;;;;;32.60;22.83;;;14.00;99.90;;;;;;5072596;28;20668;-78
2022/10/21 00:48:02;;;;;;;31.00;22.87;;;13.90;99.90;;;;;;5073024;28;20211;-78
2022/10/21 00:50:35;;;;;;;35.60;22.17;;;13.90;99.90;;;;;;5073224;28;20205;-78
2022/10/21 00:53:03;;;;;;;28.13;22.13;;;13.90;99.90;;;;;;5073047;28;20251;-79
2022/10/21 00:55:33;;;;;;;33.70;23.03;;;13.90;99.90;;;;;;5073143;28;20228;-78
2022/10/21 00:58:02;;;;;;;33.17;21.70;;;13.90;99.90;;;;;;5073367;28;20292;-79
2022/10/21 01:00:29;;;;;;;31.77;22.07;;;13.90;99.90;;;;;;5085392;28;20201;-78
2022/10/21 01:02:58;;;;;;;37.43;22.73;;;13.90;99.90;;;;;;5092797;28;20283;-80
2022/10/21 01:05:25;;;;;;;29.87;22.83;;;13.80;99.90;;;;;;5072266;28;20213;-77
2022/10/21 01:07:52;;;;;;;35.07;23.57;;;13.90;99.90;;;;;;5072501;28;20205;-78
2022/10/21 01:10:19;;;;;;;27.97;20.73;;;13.90;99.90;;;;;;5072921;28;20311;-79
2022/10/21 01:12:57;;;;;;;32.87;22.10;;;13.90;99.90;;;;;;5072019;28;20284;-79
2022/10/21 01:15:30;;;;;;;36.47;22.80;;;13.90;99.90;;;;;;5072624;28;20197;-78
2022/10/21 01:18:04;;;;;;;35.37;22.23;;;13.90;99.90;;;;;;5072483;28;20570;-78
2022/10/21 01:20:58;;;;;;;31.17;22.52;;;13.90;99.90;;;;;;5071790;28;20192;-78
2022/10/21 01:23:52;;;;;;;31.33;22.17;;;13.90;99.90;;;;;;5072215;28;20292;-78
2022/10/21 01:26:37;;;;;;;30.67;22.67;;;13.90;99.90;;;;;;5071994;28;20190;-77
2022/10/21 01:29:31;;;;;;;27.90;21.17;;;13.80;99.90;;;;;;5072360;28;20602;-78
2022/10/21 01:32:07;;;;;;;31.63;22.47;;;13.80;99.90;;;;;;5072786;28;20219;-80
2022/10/21 01:34:41;;;;;;;30.33;22.30;;;13.80;99.90;;;;;;5071454;28;20193;-78
2022/10/21 01:37:13;;;;;;;30.33;22.30;;;13.80;99.90;;;;;;5088983;28;20672;-78
2022/10/21 01:39:45;;;;;;;32.40;22.30;;;13.80;99.90;;;;;;5086594;28;20193;-77
2022/10/21 01:42:17;;;;;;;27.17;20.73;;;13.80;99.90;;;;;;5071527;28;20276;-78
2022/10/21 01:44:59;;;;;;;29.27;21.07;;;13.80;99.90;;;;;;5071828;28;20581;-77
2022/10/21 01:47:33;;;;;;;24.47;20.23;;;13.70;99.90;;;;;;5072219;28;20197;-77
2022/10/21 01:50:05;;;;;;;28.07;21.07;;;13.70;99.90;;;;;;5071782;28;20200;-78
2022/10/21 01:52:32;;;;;;;28.37;21.10;;;13.70;99.90;;;;;;5072189;28;20229;-77
2022/10/21 01:55:02;;;;;;;26.37;19.50;;;13.70;99.90;;;;;;5071743;28;20531;-79
2022/10/21 01:57:35;;;;;;;26.07;19.93;;;13.70;99.90;;;;;;5072091;28;20292;-80
2022/10/21 02:00:02;;;;;;;24.90;18.90;;;13.60;99.90;;;;;;5071766;28;20273;-78
2022/10/21 02:02:34;;;;;;;29.97;19.53;;;13.60;99.90;;;;;;5071259;28;20205;-77
2022/10/21 02:05:06;;;;;;;29.83;22.17;;;13.60;99.90;;;;;;5070938;28;20733;-78
2022/10/21 02:07:33;;;;;;;27.13;21.23;;;13.50;99.90;;;;;;5071635;28;20479;-79
2022/10/21 02:09:59;;;;;;;23.73;18.77;;;13.60;99.90;;;;;;5071624;28;20211;-78
2022/10/21 02:12:29;;;;;;;30.60;21.93;;;13.50;99.90;;;;;;5071537;28;20304;-78
2022/10/21 02:14:59;;;;;;;27.10;20.83;;;13.50;99.90;;;;;;5071945;28;20197;-78
2022/10/21 02:17:28;;;;;;;25.30;20.27;;;13.50;99.90;;;;;;5090617;28;20228;-80
2022/10/21 02:20:02;;;;;;;23.53;18.53;;;13.50;99.90;;;;;;5085912;28;20197;-80
2022/10/21 02:22:30;;;;;;;21.90;18.40;;;13.50;99.90;;;;;;5071138;28;20190;-79
2022/10/21 02:25:01;;;;;;;22.00;17.27;;;13.50;99.90;;;;;;5071846;28;20582;-80
2022/10/21 02:27:28;;;;;;;20.53;16.83;;;13.50;99.90;;;;;;5072040;28;20205;-77
2022/10/21 02:29:58;;;;;;;18.57;15.93;;;13.40;99.90;;;;;;5070884;28;20205;-79
2022/10/21 02:32:31;;;;;;;18.43;15.23;;;13.40;99.90;;;;;;5071979;28;20205;-78
2022/10/21 02:35:22;;;;;;;23.33;17.77;;;13.30;99.90;;;;;;5071644;28;20189;-78
2022/10/21 02:37:56;;;;;;;26.37;17.93;;;13.30;99.90;;;;;;5071252;28;20416;-79
2022/10/21 02:40:29;;;;;;;20.47;17.90;;;13.30;99.90;;;;;;5071700;28;20197;-78
2022/10/21 02:42:59;;;;;;;25.40;20.07;;;13.30;99.90;;;;;;5076917;28;20279;-80
2022/10/21 02:45:27;;;;;;;22.83;17.47;;;13.30;99.90;;;;;;5091831;28;20185;-78
2022/10/21 02:47:54;;;;;;;20.10;15.93;;;13.20;99.90;;;;;;5084553;28;20201;-79
2022/10/21 02:50:22;;;;;;;20.03;16.37;;;13.20;99.90;;;;;;5071304;28;20205;-80
2022/10/21 02:52:49;;;;;;;23.57;17.47;;;13.20;99.90;;;;;;5069937;28;20268;-79
2022/10/21 02:55:16;;;;;;;20.40;16.80;;;13.10;99.90;;;;;;5070967;28;20213;-79
2022/10/21 02:57:43;;;;;;;19.30;15.70;;;13.10;99.90;;;;;;5070530;28;20216;-79
2022/10/21 03:00:11;;;;;;;18.20;15.27;;;13.10;99.90;;;;;;5071619;28;20290;-79
2022/10/21 03:02:38;;;;;;;19.83;15.47;;;13.10;99.90;;;;;;5072709;28;20577;-79
2022/10/21 03:05:05;;;;;;;18.20;15.13;;;13.10;99.90;;;;;;5074379;28;20205;-79
2022/10/21 03:07:33;;;;;;;18.50;15.50;;;13.10;99.90;;;;;;5074647;28;20202;-79
2022/10/21 03:10:00;;;;;;;18.13;14.83;;;13.00;99.90;;;;;;5075058;28;20200;-78
2022/10/21 03:12:27;;;;;;;17.20;14.13;;;13.00;99.90;;;;;;5074523;28;20239;-78
2022/10/21 03:14:54;;;;;;;16.83;14.63;;;13.00;99.90;;;;;;5075166;28;20296;-78
2022/10/21 03:17:21;;;;;;;18.83;14.77;;;13.00;99.90;;;;;;5074091;28;20587;-79
2022/10/21 03:19:48;;;;;;;18.07;15.30;;;13.00;99.90;;;;;;5074307;28;20604;-79
2022/10/21 03:22:14;;;;;;;19.03;15.70;;;13.00;99.90;;;;;;5074894;28;20193;-80
2022/10/21 03:24:43;;;;;;;18.37;14.83;;;13.00;99.90;;;;;;5074872;28;20304;-80
2022/10/21 03:27:10;;;;;;;18.03;14.20;;;13.00;99.90;;;;;;5074187;28;20225;-78
2022/10/21 03:29:36;;;;;;;18.63;16.63;;;13.00;99.90;;;;;;5074965;28;20193;-78
2022/10/21 03:32:03;;;;;;;22.60;16.87;;;13.00;99.90;;;;;;5074644;28;20213;-79
2022/10/21 03:34:30;;;;;;;17.57;15.67;;;13.00;99.90;;;;;;5073950;28;20225;-78
2022/10/21 03:36:57;;;;;;;19.47;14.97;;;13.00;99.90;;;;;;5074384;28;20205;-78
2022/10/21 03:39:24;;;;;;;20.17;16.03;;;13.10;99.90;;;;;;5074535;28;20208;-78
2022/10/21 03:41:52;;;;;;;19.90;15.87;;;13.10;99.90;;;;;;5074407;28;20220;-78
2022/10/21 03:44:19;;;;;;;19.07;15.87;;;13.10;99.90;;;;;;5074571;28;20201;-79
2022/10/21 03:46:46;;;;;;;18.67;15.43;;;13.10;99.90;;;;;;5074598;28;20200;-80
2022/10/21 03:49:13;;;;;;;18.93;15.67;;;13.10;99.90;;;;;;5073490;28;20216;-79
2022/10/21 03:51:40;;;;;;;19.97;16.27;;;13.10;99.90;;;;;;5074641;28;20869;-78
2022/10/21 03:54:06;;;;;;;19.37;16.10;;;13.10;99.90;;;;;;5074054;28;20208;-80
2022/10/21 03:56:33;;;;;;;18.60;15.10;;;13.10;99.90;;;;;;5074660;28;20316;-79
2022/10/21 03:59:01;;;;;;;16.87;14.23;;;13.10;99.90;;;;;;5073997;28;20224;-78
2022/10/21 04:01:28;;;;;;;18.10;15.90;;;13.10;99.90;;;;;;5073622;28;20201;-80
2022/10/21 04:03:55;;;;;;;26.20;16.70;;;13.00;99.90;;;;;;5074046;28;20605;-78
2022/10/21 04:06:22;;;;;;;26.50;18.10;;;13.00;99.90;;;;;;5073984;28;20201;-79
2022/10/21 04:08:49;;;;;;;19.80;15.80;;;13.00;99.90;;;;;;5073264;28;20259;-79
2022/10/21 04:11:16;;;;;;;24.53;17.50;;;13.00;99.90;;;;;;5073848;28;20500;-79
2022/10/21 04:13:43;;;;;;;21.47;17.00;;;13.00;99.90;;;;;;5072948;28;20284;-79
2022/10/21 04:16:15;;;;;;;25.40;17.90;;;13.00;99.90;;;;;;5073288;28;20190;-80
2022/10/21 04:18:42;;;;;;;20.17;15.73;;;13.10;99.90;;;;;;5073867;28;20225;-80
2022/10/21 04:21:09;;;;;;;19.43;15.53;;;13.10;99.90;;;;;;5073825;28;20212;-79
2022/10/21 04:23:36;;;;;;;20.80;15.30;;;13.10;99.90;;;;;;5073275;28;20284;-78
2022/10/21 04:26:05;;;;;;;18.53;14.33;;;13.10;99.90;;;;;;5073477;28;20231;-79
2022/10/21 04:28:32;;;;;;;16.53;13.63;;;13.10;99.90;;;;;;5073493;28;20758;-78
2022/10/21 04:30:59;;;;;;;16.43;13.73;;;13.00;99.90;;;;;;5072951;28;20201;-78
2022/10/21 04:33:27;;;;;;;18.73;14.57;;;13.00;99.90;;;;;;5073960;28;20311;-79
2022/10/21 04:35:55;;;;;;;19.07;14.77;;;12.90;99.90;;;;;;5073077;28;20201;-79
2022/10/21 04:38:22;;;;;;;16.67;13.40;;;12.90;99.90;;;;;;5072761;28;20209;-78
2022/10/21 04:40:56;;;;;;;15.37;12.90;;;12.90;99.90;;;;;;5073421;28;20502;-78
2022/10/21 04:43:22;;;;;;;15.30;12.80;;;12.80;99.90;;;;;;5072930;28;20190;-78
2022/10/21 04:45:50;;;;;;;14.73;13.10;;;12.80;99.90;;;;;;5073197;28;20209;-79
2022/10/21 04:48:16;;;;;;;14.87;12.13;;;12.80;99.90;;;;;;5073305;28;20266;-78
2022/10/21 04:50:45;;;;;;;14.77;12.73;;;12.80;99.90;;;;;;5072407;28;20204;-78
2022/10/21 04:53:11;;;;;;;14.40;11.47;;;12.70;99.90;;;;;;5072997;28;20225;-79
2022/10/21 04:55:39;;;;;;;17.33;13.47;;;12.70;99.90;;;;;;5073145;28;20583;-78
2022/10/21 04:58:06;;;;;;;18.87;14.50;;;12.70;99.90;;;;;;5072997;28;20197;-79
2022/10/21 05:00:33;;;;;;;25.27;16.30;;;12.70;99.90;;;;;;5072885;28;20602;-79
2022/10/21 05:03:00;;;;;;;22.63;16.10;;;12.80;99.90;;;;;;5072505;28;20197;-78
2022/10/21 05:05:27;;;;;;;21.60;16.93;;;12.80;99.90;;;;;;5092160;28;20295;-78
2022/10/21 05:07:55;;;;;;;26.27;18.03;;;12.90;99.90;;;;;;5091968;28;20204;-78
2022/10/21 05:10:23;;;;;;;26.13;18.47;;;13.00;99.90;;;;;;5080638;28;20254;-78
2022/10/21 05:12:50;;;;;;;19.97;15.77;;;13.00;99.90;;;;;;5072188;28;20657;-79
2022/10/21 05:15:17;;;;;;;24.70;17.67;;;13.00;99.90;;;;;;5072674;28;20534;-80
2022/10/21 05:17:44;;;;;;;21.67;16.30;;;13.10;99.90;;;;;;5072523;28;20255;-78
2022/10/21 05:20:11;;;;;;;24.07;18.10;;;13.10;99.90;;;;;;5072297;28;20196;-79
2022/10/21 05:22:38;;;;;;;25.60;17.07;;;13.10;99.90;;;;;;5072414;28;20200;-79
2022/10/21 05:25:07;;;;;;;18.07;15.00;;;13.10;99.90;;;;;;5072408;28;20212;-78
2022/10/21 05:27:34;;;;;;;16.87;14.67;;;13.10;99.90;;;;;;5071641;28;20205;-78
2022/10/21 05:30:01;;;;;;;22.57;16.10;;;13.00;99.90;;;;;;5072784;28;20594;-79
2022/10/21 05:32:28;;;;;;;16.73;14.77;;;13.00;99.90;;;;;;5071702;28;20764;-79
2022/10/21 05:34:55;;;;;;;18.47;14.77;;;13.00;99.90;;;;;;5072705;28;20209;-79
2022/10/21 05:37:22;;;;;;;23.87;15.03;;;13.00;99.90;;;;;;5091667;28;20209;-78
2022/10/21 05:39:49;;;;;;;28.60;16.20;;;13.00;99.90;;;;;;5080495;28;20212;-78
2022/10/21 05:42:17;;;;;;;33.33;17.83;;;13.00;99.90;;;;;;5072555;28;20197;-78
2022/10/21 05:44:44;;;;;;;22.03;17.00;;;13.00;99.90;;;;;;5072275;28;20205;-78
2022/10/21 05:47:11;;;;;;;26.20;17.50;;;13.00;99.90;;;;;;5071514;28;20185;-79
2022/10/21 05:49:37;;;;;;;27.37;18.20;;;13.10;99.90;;;;;;5076904;28;20205;-78
2022/10/21 05:52:04;;;;;;;29.53;17.97;;;13.10;99.90;;;;;;5071661;28;20223;-78
2022/10/21 05:54:31;;;;;;;31.33;17.80;;;13.10;99.90;;;;;;5071489;28;20502;-78
2022/10/21 05:56:58;;;;;;;32.23;19.13;;;13.10;99.90;;;;;;5072321;28;20201;-80
2022/10/21 05:59:26;;;;;;;26.17;17.27;;;13.20;99.90;;;;;;5083960;28;20197;-79
2022/10/21 06:01:53;;;;;;;28.13;17.90;;;13.10;99.90;;;;;;5092067;28;20196;-79
2022/10/21 06:04:20;;;;;;;26.47;16.73;;;13.10;99.90;;;;;;5092273;28;20189;-78
2022/10/21 06:06:47;;;;;;;29.27;18.23;;;13.10;99.90;;;;;;5092293;28;20215;-77
2022/10/21 06:09:14;;;;;;;27.43;18.27;;;13.10;99.90;;;;;;5072249;28;20296;-78
2022/10/21 06:11:40;;;;;;;22.53;17.00;;;13.10;99.90;;;;;;5071643;28;20672;-78
2022/10/21 06:14:07;;;;;;;26.63;16.23;;;13.10;99.90;;;;;;5071770;28;20201;-77
2022/10/21 06:16:36;;;;;;;25.60;18.07;;;13.10;99.90;;;;;;5071146;28;20224;-78
2022/10/21 06:19:03;;;;;;;30.80;18.57;;;13.10;99.90;;;;;;5071805;28;20228;-78
2022/10/21 06:21:30;;;;;;;29.80;19.43;;;13.10;99.90;;;;;;5072178;28;20197;-78
2022/10/21 06:23:56;;;;;;;30.20;18.50;;;13.10;99.90;;;;;;5077015;28;20208;-78
2022/10/21 06:26:24;;;;;;;25.47;17.43;;;13.10;99.90;;;;;;5089470;28;20197;-78
2022/10/21 06:28:50;;;;;;;28.47;17.70;;;13.10;99.90;;;;;;5093304;28;20274;-78
2022/10/21 06:31:20;;;;;;;26.73;17.33;;;13.10;99.90;;;;;;5081764;28;20201;-80
2022/10/21 06:33:48;;;;;;;30.57;19.17;;;13.10;99.90;;;;;;5071258;28;20200;-79
2022/10/21 06:36:15;;;;;;;30.03;17.27;;;13.10;99.90;;;;;;5070494;28;20205;-79
2022/10/21 06:38:43;;;;;;;28.10;18.33;;;13.10;99.90;;;;;;5094011;28;20218;-78
2022/10/21 06:41:12;;;;;;;26.33;17.10;;;13.10;99.90;;;;;;5095301;28;20219;-77
2022/10/21 06:43:39;;;;;;;25.57;17.07;;;13.10;99.90;;;;;;5086976;28;20204;-78
2022/10/21 06:46:09;;;;;;;27.93;18.17;;;13.10;99.90;;;;;;5074480;28;20616;-79
2022/10/21 06:48:36;;;;;;;23.67;16.73;;;13.10;99.90;;;;;;5075273;28;20210;-78
2022/10/21 06:51:06;;;;;;;25.03;17.97;;;13.10;99.90;;;;;;5074506;28;20198;-79
2022/10/21 06:53:34;;;;;;;27.80;17.83;;;13.00;99.90;;;;;;5075483;28;20229;-77
2022/10/21 06:56:03;;;;;;;28.03;18.53;;;13.00;99.90;;;;;;5074889;28;20573;-78
2022/10/21 06:58:31;;;;;;;24.13;16.90;;;13.10;99.90;;;;;;5074747;28;20852;-78
2022/10/21 07:00:57;;;;;;;20.90;14.87;;;13.10;99.90;;;;;;5074812;28;20444;-78
2022/10/21 07:03:24;;;;;;;22.43;15.63;;;13.10;99.90;;;;;;5080200;28;20220;-78
2022/10/21 07:05:58;;;;;;;20.40;15.00;;;13.10;99.90;;;;;;5094282;28;20192;-78
2022/10/21 07:08:26;;;;;;;16.67;13.80;;;13.10;99.90;;;;;;5094771;28;20526;-79
2022/10/21 07:10:53;;;;;;;20.23;14.70;;;13.10;99.90;;;;;;5090007;22;20225;-78
2022/10/21 07:13:21;;;;;;;18.20;15.07;;;13.10;99.90;;;;;;5050205;28;20225;-79
2022/10/21 07:15:48;;;;;;;22.80;15.37;;;13.10;99.90;;;;;;5055928;28;20209;-80
2022/10/21 07:18:15;;;;;;;18.63;14.07;;;13.20;99.90;;;;;;5058418;28;20220;-79
2022/10/21 07:20:42;;;;;;;15.07;13.20;;;13.20;99.90;;;;;;5048936;28;20198;-79
2022/10/21 07:23:09;;;;;;;17.27;12.60;;;13.20;99.90;;;;;;5053551;28;20202;-79
2022/10/21 07:25:38;;;;;;;20.13;15.47;;;13.20;99.90;;;;;;5053995;28;20190;-79
2022/10/21 07:28:04;;;;;;;18.60;14.53;;;13.20;99.90;;;;;;5050367;28;20217;-79
2022/10/21 07:30:31;;;;;;;18.70;13.83;;;13.20;99.90;;;;;;5034669;28;20199;-80
2022/10/21 07:32:58;;;;;;;17.37;13.27;;;13.30;99.90;;;;;;5032357;28;20222;-79
2022/10/21 07:35:25;;;;;;;15.40;13.43;;;13.20;99.90;;;;;;5034712;28;20194;-79
2022/10/21 07:37:52;;;;;;;19.47;14.10;;;13.30;99.90;;;;;;5034537;28;20478;-80
2022/10/21 07:40:19;;;;;;;17.57;14.40;;;13.30;99.90;;;;;;5033137;28;20202;-80
2022/10/21 07:42:47;;;;;;;17.03;13.53;;;13.30;99.90;;;;;;5034574;28;20195;-79
2022/10/21 07:45:14;;;;;;;33.73;18.97;;;13.40;99.90;;;;;;5034528;28;20209;-80
2022/10/21 07:47:41;;;;;;;26.13;17.13;;;13.30;99.90;;;;;;5033704;28;20237;-79
2022/10/21 07:50:09;;;;;;;24.37;16.90;;;13.40;99.90;;;;;;5034474;28;20285;-80
2022/10/21 07:52:37;;;;;;;27.77;17.93;;;13.40;99.90;;;;;;5033938;28;20227;-79
2022/10/21 07:55:05;;;;;;;25.23;17.67;;;13.40;99.90;;;;;;5033806;28;20665;-79
2022/10/21 07:57:32;;;;;;;26.80;17.13;;;13.50;99.90;;;;;;5034943;28;20202;-79
2022/10/21 08:00:00;;;;;;;28.90;18.57;;;13.50;99.90;;;;;;5034650;28;20643;-78
2022/10/21 08:02:27;;;;;;;23.73;16.97;;;13.50;99.90;;;;;;5033598;28;20207;-79
2022/10/21 08:04:54;;;;;;;25.10;18.30;;;13.50;99.90;;;;;;5034064;28;20210;-78
2022/10/21 08:07:21;;;;;;;27.80;18.17;;;13.50;99.90;;;;;;5033174;28;20210;-79
2022/10/21 08:09:48;;;;;;;26.10;17.53;;;13.50;99.90;;;;;;5034053;28;20590;-80
2022/10/21 08:12:15;;;;;;;26.83;18.00;;;13.60;99.90;;;;;;5033713;28;20242;-80
2022/10/21 08:14:42;;;;;;;27.80;18.07;;;13.60;99.90;;;;;;5033549;28;20510;-79
2022/10/21 08:17:10;;;;;;;28.60;18.33;;;13.60;99.90;;;;;;5033651;28;20285;-79
2022/10/21 08:19:37;;;;;;;23.90;16.73;;;13.60;99.90;;;;;;5031412;28;20241;-79
2022/10/21 08:22:05;;;;;;;25.23;17.60;;;13.70;99.90;;;;;;5032666;28;20263;-81
2022/10/21 08:24:32;;;;;;;28.40;17.70;;;13.70;99.90;;;;;;5043601;28;20293;-79
2022/10/21 08:26:59;;;;;;;21.70;16.17;;;13.70;99.90;;;;;;5051882;28;20208;-79
2022/10/21 08:29:26;;;;;;;27.47;17.77;;;13.70;99.90;;;;;;5043884;28;20202;-79
2022/10/21 08:31:53;;;;;;;23.60;16.83;;;13.80;99.90;;;;;;5052884;28;20210;-77
2022/10/21 08:34:21;;;;;;;25.30;16.60;;;13.70;99.90;;;;;;5052816;28;20218;-79
2022/10/21 08:36:48;;;;;;;25.43;17.17;;;13.80;99.90;;;;;;5044937;28;20674;-78
2022/10/21 08:39:15;;;;;;;23.00;17.00;;;13.80;99.90;;;;;;5032946;28;20615;-78
2022/10/21 08:42:07;;;;;;;28.10;17.97;;;13.80;99.90;;;;;;5034976;28;20284;-79
2022/10/21 08:44:43;;;;;;;27.10;17.93;;;13.80;99.90;;;;;;5049849;28;20206;-79
2022/10/21 08:47:17;;;;;;;29.43;17.77;;;13.80;99.90;;;;;;5046191;28;20203;-79
2022/10/21 08:49:53;;;;;;;25.10;17.37;;;13.80;99.90;;;;;;5032372;28;20191;-77
2022/10/21 08:52:24;;;;;;;26.37;17.70;;;13.80;99.90;;;;;;5032837;28;20210;-78
2022/10/21 08:54:56;;;;;;;25.27;16.93;;;13.80;99.90;;;;;;5032714;28;20819;-77
2022/10/21 08:57:23;;;;;;;22.47;16.63;;;13.80;99.90;;;;;;5032244;28;20202;-77
2022/10/21 08:59:50;;;;;;;24.60;16.63;;;13.90;99.90;;;;;;5032397;28;20210;-77
2022/10/21 09:02:43;;;;;;;28.40;18.33;;;13.90;99.90;;;;;;5032305;28;20203;-77
2022/10/21 09:05:33;;;;;;;25.37;17.17;;;13.90;99.90;;;;;;5032095;28;20186;-77
2022/10/21 09:08:14;;;;;;;23.70;17.70;;;13.90;99.90;;;;;;5032092;28;20209;-78
2022/10/21 09:10:55;;;;;;;21.87;16.30;;;14.00;99.90;;;;;;5031483;28;20234;-80
2022/10/21 09:13:32;;;;;;;24.47;17.63;;;14.00;99.90;;;;;;5044405;28;20206;-78
2022/10/21 09:16:07;;;;;;;22.60;16.20;;;14.00;99.90;;;;;;5046860;28;20286;-79
2022/10/21 09:18:46;;;;;;;21.87;15.07;;;14.10;99.90;;;;;;5051548;28;20201;-78
2022/10/21 09:21:23;;;;;;;24.80;16.73;;;14.10;99.90;;;;;;5045883;28;20202;-79
2022/10/21 09:23:55;;;;;;;23.20;15.75;;;14.10;99.90;;;;;;5052211;28;20190;-79
2022/10/21 09:26:36;;;;;;;23.13;17.43;;;14.20;99.90;;;;;;5048239;28;20204;-77
2022/10/21 09:29:19;;;;;;;24.90;16.00;;;14.20;99.90;;;;;;5048309;28;20233;-78
2022/10/21 09:31:47;;;;;;;19.17;15.50;;;14.30;99.90;;;;;;5031390;28;20198;-78
2022/10/21 09:34:21;;;;;;;24.97;16.33;;;14.30;99.90;;;;;;5040384;28;20225;-80
2022/10/21 09:36:51;;;;;;;25.83;17.00;;;14.30;99.90;;;;;;5042883;28;20193;-79
2022/10/21 09:39:30;;;;;;;26.53;16.43;;;14.30;99.90;;;;;;5051129;28;20194;-79
2022/10/21 09:41:59;;;;;;;24.10;16.50;;;14.30;99.90;;;;;;5043369;28;20267;-79
2022/10/21 09:44:25;;;;;;;20.90;15.80;;;14.40;99.90;;;;;;5038082;28;20205;-80
2022/10/21 09:46:54;;;;;;;22.50;15.77;;;14.40;99.90;;;;;;5041571;28;20217;-78
2022/10/21 09:49:30;;;;;;;22.27;15.73;;;14.40;99.90;;;;;;5051864;28;20194;-78
2022/10/21 09:52:01;;;;;;;18.70;15.80;;;14.50;99.90;;;;;;5049437;28;20193;-79
2022/10/21 09:54:34;;;;;;;23.83;17.03;;;14.50;99.90;;;;;;5051212;28;20226;-79
2022/10/21 09:57:10;;;;;;;23.00;16.27;;;14.50;99.90;;;;;;5033395;28;20202;-78
2022/10/21 09:59:50;;;;;;;27.27;15.63;;;14.60;99.90;;;;;;5031517;28;20198;-78
2022/10/21 10:02:23;;;;;;;25.40;16.00;;;14.60;99.90;;;;;;5035632;28;20212;-78
2022/10/21 10:04:50;;;;;;;23.93;15.63;;;14.70;99.90;;;;;;5051078;28;20198;-77
2022/10/21 10:07:28;;;;;;;24.45;15.77;;;14.70;99.90;;;;;;5043341;28;20233;-77
2022/10/21 10:09:55;;;;;;;22.87;14.57;;;14.80;99.90;;;;;;5047730;28;20269;-76
2022/10/21 10:12:24;;;;;;;20.85;15.73;;;14.80;99.90;;;;;;5049552;28;20705;-78
2022/10/21 10:14:51;;;;;;;20.83;14.68;;;14.80;99.90;;;;;;5043842;28;20214;-80
2022/10/21 10:17:38;;;;;;;20.23;13.88;;;14.90;99.90;;;;;;5055386;28;20520;-78
2022/10/21 10:20:18;;;;;;;21.52;14.85;;;14.90;99.90;;;;;;5035391;28;20250;-78
2022/10/21 10:22:48;;;;;;;17.17;13.07;;;15.00;99.90;;;;;;5035094;28;20187;-77
2022/10/21 10:25:23;;;;;;;21.30;13.40;;;15.10;99.90;;;;;;5035306;28;20252;-77
2022/10/21 10:27:52;;;;;;;24.08;13.48;;;15.10;99.90;;;;;;5037628;28;20244;-77
2022/10/21 10:30:19;;;;;;;19.33;13.10;;;15.20;99.90;;;;;;5055278;28;20240;-77
2022/10/21 10:32:47;;;;;;;16.60;11.65;;;15.20;99.90;;;;;;5052184;28;20213;-76
2022/10/21 10:35:26;;;;;;;16.52;12.85;;;15.30;99.90;;;;;;5036811;28;20209;-78
2022/10/21 10:37:57;;;;;;;21.33;13.18;;;15.30;99.90;;;;;;5035739;28;20285;-78
2022/10/21 10:40:26;;;;;;;18.48;12.32;;;15.40;99.90;;;;;;5035090;28;20206;-77
2022/10/21 10:43:01;;;;;;;16.95;12.90;;;15.50;99.90;;;;;;5035015;28;20531;-78
2022/10/21 10:45:28;;;;;;;12.43;10.63;;;15.60;99.90;;;;;;5035374;28;20508;-77
2022/10/21 10:47:58;;;;;;;21.30;13.43;;;15.70;99.90;;;;;;5034892;28;20289;-78
2022/10/21 10:50:42;;;;;;;15.98;13.15;;;15.80;99.90;;;;;;5034158;28;20533;-78
2022/10/21 10:53:22;;;;;;;15.77;12.73;;;15.90;99.90;;;;;;5034650;28;20724;-79
2022/10/21 10:55:55;;;;;;;16.65;12.77;;;16.00;99.90;;;;;;5035004;28;20222;-80
2022/10/21 10:58:25;;;;;;;17.52;12.60;;;16.10;99.90;;;;;;5034776;28;20198;-79
2022/10/21 11:00:58;;;;;;;14.82;11.05;;;16.30;99.90;;;;;;5035093;28;20199;-80
2022/10/21 11:03:30;;;;;;;13.43;11.75;;;16.50;99.90;;;;;;5034622;28;20187;-78
2022/10/21 11:06:06;;;;;;;15.55;10.85;;;16.60;99.90;;;;;;5034872;28;20202;-78
2022/10/21 11:08:41;;;;;;;16.75;11.10;;;16.70;99.90;;;;;;5035138;28;20571;-80
2022/10/21 11:11:14;;;;;;;14.68;10.95;;;16.80;99.90;;;;;;5033767;28;20240;-80
2022/10/21 11:13:41;;;;;;;17.33;11.45;;;16.90;99.90;;;;;;5053966;28;20287;-81
2022/10/21 11:16:24;;;;;;;13.30;9.52;;;16.90;99.90;;;;;;5055290;28;20209;-79
2022/10/21 11:18:59;;;;;;;11.25;9.18;;;17.00;99.90;;;;;;5053093;28;20551;-80
2022/10/21 11:21:47;;;;;;;14.30;9.10;;;17.00;99.90;;;;;;5037048;28;20209;-78
2022/10/21 11:24:39;;;;;;;13.00;8.25;;;17.10;99.90;;;;;;5033688;28;20194;-81
2022/10/21 11:27:16;;;;;;;9.57;8.10;;;17.30;99.90;;;;;;5034982;28;20199;-80
2022/10/21 11:29:51;;;;;;;11.30;8.20;;;17.50;99.90;;;;;;5034235;28;20526;-79
2022/10/21 11:32:30;;;;;;;9.85;7.40;;;17.60;99.90;;;;;;5033725;28;20222;-80
2022/10/21 11:35:04;;;;;;;10.63;6.88;;;17.60;99.90;;;;;;5034496;28;20217;-78
2022/10/21 11:37:46;;;;;;;15.52;7.63;;;17.70;99.90;;;;;;5033990;28;20208;-78
2022/10/21 11:40:21;;;;;;;11.57;7.63;;;17.60;99.90;;;;;;5033307;28;20204;-79
2022/10/21 11:42:51;;;;;;;14.35;7.25;;;17.70;99.90;;;;;;5033890;28;20190;-78
2022/10/21 11:45:44;;;;;;;13.20;7.43;;;17.70;99.90;;;;;;5033547;28;20215;-79
2022/10/21 11:48:21;;;;;;;10.00;7.25;;;17.80;99.90;;;;;;5033803;28;20194;-80
2022/10/21 11:51:00;;;;;;;15.23;7.40;;;17.90;99.90;;;;;;5033964;28;20289;-78
2022/10/21 11:53:42;;;;;;;14.93;6.05;;;17.90;99.90;;;;;;5034882;28;20236;-78
2022/10/21 11:56:20;;;;;;;14.60;7.32;;;18.00;99.90;;;;;;5032145;28;20309;-78
2022/10/21 11:59:00;;;;;;;12.15;7.00;;;18.10;99.90;;;;;;5042884;28;20209;-78
2022/10/21 12:01:41;;;;;;;9.40;5.00;;;18.30;99.90;;;;;;5052018;28;20186;-84
2022/10/21 12:04:27;;;;;;;10.23;6.43;;;18.40;99.90;;;;;;5055443;28;20531;-83
2022/10/21 12:07:12;;;;;;;11.88;6.43;;;18.50;99.90;;;;;;5038702;28;20658;-79
2022/10/21 12:09:47;;;;;;;9.75;5.55;;;18.50;99.90;;;;;;5036519;28;20538;-78
2022/10/21 12:12:19;;;;;;;10.52;6.07;;;18.60;99.90;;;;;;5053565;28;20226;-79
2022/10/21 12:14:49;;;;;;;9.50;5.75;;;18.60;99.90;;;;;;5053136;28;20216;-79
2022/10/21 12:17:19;;;;;;;9.07;4.53;;;18.60;99.90;;;;;;5034259;28;20213;-79
2022/10/21 12:19:53;;;;;;;7.20;4.00;;;18.60;99.90;;;;;;5033554;28;20603;-78
2022/10/21 12:22:22;;;;;;;11.35;4.22;;;18.60;99.90;;;;;;5032071;28;20635;-78
2022/10/21 12:24:55;;;;;;;7.88;3.97;;;18.60;99.90;;;;;;5033010;28;20514;-77
2022/10/21 12:27:29;;;;;;;9.55;3.80;;;18.60;99.90;;;;;;5033176;28;20190;-77
2022/10/21 12:30:02;;;;;;;10.32;4.30;;;18.60;99.90;;;;;;5033343;28;20213;-77
2022/10/21 12:32:37;;;;;;;14.95;5.10;;;18.60;99.90;;;;;;5033218;28;20191;-79
2022/10/21 12:35:05;;;;;;;13.32;4.65;;;18.50;99.90;;;;;;5043661;28;20203;-79
2022/10/21 12:38:06;;;;;;;7.80;4.13;;;18.50;99.90;;;;;;5054141;28;20202;-85
2022/10/21 12:40:40;;;;;;;13.70;5.13;;;18.50;99.90;;;;;;5028469;28;20197;-81
2022/10/21 12:43:19;;;;;;;11.15;4.13;;;18.50;99.90;;;;;;5032547;28;20214;-78
2022/10/21 12:45:48;;;;;;;10.60;3.95;;;18.50;99.90;;;;;;5034642;28;20202;-80